ADDS METAR Data INFO
IDs: Format: Raw Decoded Include TAF

Data at: 1127 UTC 17 Jul 2018

KBQX 171115Z AUTO 21013KT 10SM BKN050 OVC055 29/24 A3006 RMK A01
KBQX 171055Z AUTO 20014KT 9SM FEW021 OVC050 29/24 A3005 RMK A01
KBQX 171035Z AUTO 20014KT 9SM FEW022 OVC050 29/24 A3005 RMK A01
KBQX 171015Z AUTO 20013KT 9SM FEW022 OVC050 29/25 A3005 RMK A01
KBQX 170955Z AUTO 19015KT 10SM OVC050 29/24 A3005 RMK A01
KBQX 170935Z AUTO 20014KT 9SM BKN050 29/24 A3004 RMK A01
KBQX 170915Z AUTO 19015KT 10SM FEW060 29/24 A3004 RMK A01
KBQX 170855Z AUTO 19015KT 10SM SCT060 29/24 A3004 RMK A01
KBQX 170835Z AUTO 19013KT 9SM SCT060 29/24 A3005 RMK A01
KBQX 170815Z AUTO 19014KT 9SM SCT060 SCT070 29/24 A3005 RMK A01
KBQX 170755Z AUTO 18012KT 9SM SCT060 29/25 A3006 RMK A01
KBQX 170735Z AUTO 18012KT 9SM FEW055 SCT065 29/25 A3006 RMK A01
KBQX 170715Z AUTO 19012KT 9SM SCT060 29/25 A3006 RMK A01
KBQX 170655Z AUTO 18015KT 10SM SCT060 29/24 A3005 RMK A01
KBQX 170635Z AUTO 19015KT 10SM FEW050 SCT060 BKN065 29/24 A3005 RMK A01
KBQX 170615Z AUTO 18015KT 9SM FEW050 SCT060 BKN070 29/24 A3005 RMK A01
KBQX 170555Z AUTO 18014KT 9SM FEW049 BKN060 BKN070 29/24 A3005 RMK A01
KBQX 170535Z AUTO 18014KT 9SM FEW050 BKN060 BKN070 29/24 A3005 RMK A01
KBQX 170515Z AUTO 18014KT 10SM FEW049 FEW055 SCT065 29/24 A3006 RMK A01
KBQX 170455Z AUTO 18013KT 10SM FEW050 SCT060 29/25 A3005 RMK A01
KBQX 170435Z AUTO 17013KT 10SM BKN060 BKN075 29/24 A3006 RMK A01
KBQX 170415Z AUTO 17011KT 10SM BKN055 BKN065 OVC075 29/24 A3006 RMK A01
KBQX 170355Z AUTO 17011KT 9SM FEW050 BKN060 BKN070 29/25 A3005 RMK A01
KBQX 170335Z AUTO 17011KT 9SM BKN050 BKN060 29/25 A3005 RMK A01
KBQX 170315Z AUTO 17012KT 9SM SCT049 BKN055 29/24 A3004 RMK A01
KBQX 170255Z AUTO 17011KT 9SM BKN050 OVC060 29/25 A3004 RMK A01
KBQX 170235Z AUTO 16010KT 9SM BKN049 OVC060 29/25 A3004 RMK A01
KBQX 170215Z AUTO 16009KT 9SM SCT050 BKN060 29/24 A3003 RMK A01
KBQX 170155Z AUTO 17011KT 10SM FEW050 FEW065 29/24 A3003 RMK A01
KBQX 170135Z AUTO 17011KT 9SM CLR 29/24 A3003 RMK A01
KBQX 170115Z AUTO 17011KT 9SM CLR 29/24 A3003 RMK A01
KBQX 170055Z AUTO 17009KT 9SM CLR 29/24 A3003 RMK A01
KBQX 170035Z AUTO 17010KT 9SM CLR 29/24 A3003 RMK A01
KBQX 170015Z AUTO 17009KT 9SM CLR 29/24 A3003 RMK A01
KBQX 162355Z AUTO 17008KT 9SM CLR 29/24 A3003 RMK A01
KBQX 162335Z AUTO 17009KT 9SM CLR 29/24 A3004 RMK A01
KBQX 162315Z AUTO 18008KT 9SM CLR 29/24 A3003 RMK A01
KBQX 162255Z AUTO 18008KT 8SM FEW022 29/24 A3003 RMK A01
KBQX 162235Z AUTO 19007KT 9SM FEW023 29/25 A3004 RMK A01
KBQX 162215Z AUTO 19007KT 9SM SCT023 30/25 A3004 RMK A01
KBQX 162155Z AUTO 17007KT 9SM CLR 30/24 A3005 RMK A01
KBQX 162135Z AUTO 18008KT 9SM CLR 29/24 A3006 RMK A01
KBQX 162115Z AUTO 18008KT 9SM CLR 29/25 A3006 RMK A01
KBQX 162055Z AUTO 19008KT 9SM CLR 29/24 A3007 RMK A01
KBQX 162035Z AUTO 19007KT 9SM CLR 29/24 A3008 RMK A01
KBQX 162015Z AUTO 20008KT 9SM CLR 29/24 A3008 RMK A01
KBQX 161955Z AUTO 20009KT 9SM CLR 30/24 A3008 RMK A01
KBQX 161935Z AUTO 20008KT 9SM CLR 29/25 A3009 RMK A01
KBQX 161915Z AUTO 21008KT 8SM CLR 29/24 A3009 RMK A01
KBQX 161855Z AUTO 21008KT 8SM CLR 29/24 A3009 RMK A01
KBQX 161835Z AUTO 20009KT 9SM CLR 29/24 A3009 RMK A01
KBQX 161815Z AUTO 20009KT 8SM CLR 29/24 A3009 RMK A01
KBQX 161755Z AUTO 20010KT 8SM CLR 29/24 A3009 RMK A01
KBQX 161735Z AUTO 20009KT 8SM CLR 29/24 A3010 RMK A01
KBQX 161715Z AUTO 19010KT 7SM FEW023 29/24 A3010 RMK A01
KBQX 161655Z AUTO 20009KT 8SM SCT023 29/24 A3010 RMK A01
KBQX 161635Z AUTO 20008KT 8SM FEW022 29/24 A3010 RMK A01
KBQX 161615Z AUTO 19009KT 8SM CLR 29/24 A3009 RMK A01
KBQX 161555Z AUTO 21010KT 8SM CLR 29/24 A3009 RMK A01
KBQX 161535Z AUTO 20011KT 8SM CLR 29/24 A3008 RMK A01
KBQX 161515Z AUTO 20012KT 7SM CLR 29/24 A3008 RMK A01
KBQX 161455Z AUTO 19011KT 9SM CLR 29/24 A3008 RMK A01
KBQX 161435Z AUTO 20010KT 8SM CLR 29/24 A3008 RMK A01
KBQX 161415Z AUTO 20010KT 8SM FEW021 29/24 A3008 RMK A01
KBQX 161355Z AUTO 21011KT 7SM SCT021 29/24 A3007 RMK A01
KBQX 161335Z AUTO 20012KT 8SM SCT020 SCT025 29/25 A3006 RMK A01
KBQX 161315Z AUTO 20012KT 7SM SCT021 29/24 A3005 RMK A01
KBQX 161255Z AUTO 21011KT 9SM SCT019 29/24 A3005 RMK A01
KBQX 161235Z AUTO 20012KT 7SM BKN019 29/25 A3004 RMK A01
KBQX 161215Z AUTO 19013KT 7SM SCT020 29/25 A3004 RMK A01
KBQX 161155Z AUTO 20014KT 7SM FEW019 29/24 A3003 RMK A01
KBQX 161135Z AUTO 20015KT 7SM CLR 29/25 A3003 RMK A01
KBQX 161115Z AUTO 20014KT 7SM CLR 29/25 A3003 RMK A01
KBQX 161055Z AUTO 19014KT 8SM CLR 29/24 A3003 RMK A01
KBQX 161035Z AUTO 19015KT 7SM CLR 29/25 A3002 RMK A01
KBQX 161015Z AUTO 20016KT 7SM CLR 29/24 A3002 RMK A01
KBQX 160955Z AUTO 19014KT 8SM FEW070 29/24 A3002 RMK A01
KBQX 160935Z AUTO 19014KT 7SM FEW060 29/25 A3002 RMK A01
KBQX 160915Z AUTO 19016KT 7SM FEW055 FEW065 29/24 A3002 RMK A01
KBQX 160855Z AUTO 20016KT FEW060 29/24 A3002 RMK A01
KBQX 160835Z AUTO 20020KT 7SM CLR 29/24 A3001 RMK A01
KBQX 160815Z AUTO 19019KT 7SM CLR 29/24 A3002 RMK A01
KBQX 160755Z AUTO 18017KT 7SM CLR 29/25 A3002 RMK A01
KBQX 160735Z AUTO 19017KT 7SM CLR 29/24 A3003 RMK A01
KBQX 160715Z AUTO 18017KT 7SM CLR 29/24 A3003 RMK A01
KBQX 160655Z AUTO 18018KT 7SM CLR 29/24 A3003 RMK A01
KBQX 160635Z AUTO 19018KT 7SM CLR 29/25 A3003 RMK A01
KBQX 160615Z AUTO 18017KT 7SM CLR 29/25 A3004 RMK A01
KBQX 160555Z AUTO 18017KT 7SM FEW021 29/25 A3004 RMK A01
KBQX 160535Z AUTO 18018KT 7SM CLR 29/25 A3004 RMK A01
KBQX 160515Z AUTO 18017KT 7SM FEW019 FEW065 FEW075 29/25 A3004 RMK A01
KBQX 160455Z AUTO 16015KT 7SM FEW020 FEW050 FEW060 29/25 A3005 RMK A01
KBQX 160435Z AUTO 17015KT 7SM FEW050 FEW060 29/25 A3005 RMK A01
KBQX 160415Z AUTO 16016KT 7SM FEW060 29/25 A3005 RMK A01
KBQX 160355Z AUTO 17015KT 7SM FEW055 FEW070 29/25 A3005 RMK A01
KBQX 160335Z AUTO 16015KT 7SM 29/25 A3004 RMK A01
KBQX 160315Z AUTO 16014KT 7SM FEW065 29/25 A3003 RMK A01
KBQX 160255Z AUTO 17014KT 7SM CLR 29/25 A3003 RMK A01
KBQX 160235Z AUTO 17016KT 7SM CLR 29/25 A3002 RMK A01
KBQX 160215Z AUTO 17014KT 7SM FEW060 29/25 A3001 RMK A01
KBQX 160155Z AUTO 17014KT 7SM FEW022 29/25 A3000 RMK A01
KBQX 160135Z AUTO 18014KT 7SM FEW021 29/25 A2999 RMK A01
KBQX 160115Z AUTO 18012KT 7SM FEW021 29/25 A2999 RMK A01
KBQX 160055Z AUTO 18012KT 7SM FEW021 29/25 A2999 RMK A01
KBQX 160035Z AUTO 17013KT 7SM SCT022 29/25 A3000 RMK A01
KBQX 160015Z AUTO 18013KT 8SM FEW022 30/25 A3000 RMK A01
KBQX 152355Z AUTO 18012KT 7SM FEW022 30/25 A3000 RMK A01
KBQX 152335Z AUTO 18013KT 7SM FEW024 30/25 A3000 RMK A01